Time;durP1;ratioP1;P1;durP2;ratioP2;P2;SDS_P1;SDS_P2;PMS_P1;PMS_P2;Temp;Humidity;BMP_temperature;BMP_pressure;BME280_temperature;BME280_humidity;BME280_pressure;Samples;Min_cycle;Max_cycle;Signal;HPM_P1;HPM_P2
2022/05/11 00:01:46;;;;;;;3.05;1.98;;;21.10;50.60;;;;;;2367594;53;20927;-74
2022/05/11 00:04:13;;;;;;;3.28;1.92;;;21.10;50.60;;;;;;2385853;52;21067;-76
2022/05/11 00:06:39;;;;;;;3.08;1.80;;;21.10;50.60;;;;;;2445113;52;21853;-74
2022/05/11 00:09:09;;;;;;;3.78;2.05;;;21.10;50.60;;;;;;2368912;53;20983;-75
2022/05/11 00:11:37;;;;;;;3.03;1.90;;;21.10;50.70;;;;;;2368045;53;20927;-75
2022/05/11 00:14:04;;;;;;;3.90;1.95;;;21.10;50.70;;;;;;2472205;52;21007;-75
2022/05/11 00:16:31;;;;;;;3.25;2.25;;;21.10;51.20;;;;;;2368129;53;20951;-75
2022/05/11 00:19:00;;;;;;;3.05;1.92;;;21.10;50.70;;;;;;2367786;53;20947;-74
2022/05/11 00:21:26;;;;;;;3.22;2.00;;;21.20;50.90;;;;;;2367731;53;20920;-75
2022/05/11 00:23:56;;;;;;;3.55;2.10;;;21.10;50.70;;;;;;2438718;52;21538;-76
2022/05/11 00:26:22;;;;;;;3.00;1.90;;;21.20;50.80;;;;;;2366163;53;20976;-73
2022/05/11 00:28:51;;;;;;;2.83;1.73;;;21.20;50.80;;;;;;2399536;52;20987;-73
2022/05/11 00:31:17;;;;;;;3.00;1.75;;;21.20;50.70;;;;;;2367564;53;21007;-73
2022/05/11 00:33:44;;;;;;;4.43;1.75;;;21.20;50.70;;;;;;2532754;52;20979;-75
2022/05/11 00:36:11;;;;;;;2.65;1.62;;;21.20;50.70;;;;;;2381078;52;20960;-74
2022/05/11 00:38:39;;;;;;;3.10;1.75;;;21.20;50.70;;;;;;2367613;53;21027;-75
2022/05/11 00:41:06;;;;;;;2.85;1.60;;;21.20;50.70;;;;;;2364810;53;21093;-74
2022/05/11 00:43:52;;;;;;;3.05;1.80;;;21.20;50.60;;;;;;2467005;53;20932;-76
2022/05/11 00:46:39;;;;;;;3.03;1.80;;;21.30;51.40;;;;;;2367715;53;21752;-74
2022/05/11 00:51:56;;;;;;;3.10;1.90;;;21.30;50.50;;;;;;2339909;53;20964;-75
2022/05/11 00:54:26;;;;;;;4.10;2.00;;;21.20;50.40;;;;;;2373268;52;21434;-76
2022/05/11 00:56:55;;;;;;;3.45;1.52;;;21.20;50.40;;;;;;2341768;53;21075;-75
2022/05/11 00:59:24;;;;;;;3.10;1.90;;;21.20;50.30;;;;;;2442052;53;21079;-75
2022/05/11 01:01:50;;;;;;;3.15;1.80;;;21.10;50.20;;;;;;2365315;53;20928;-76
2022/05/11 01:04:19;;;;;;;3.12;1.83;;;21.10;50.20;;;;;;2506895;53;20960;-74
2022/05/11 01:06:46;;;;;;;3.17;1.92;;;21.00;50.30;;;;;;2342144;55;20936;-75
2022/05/11 01:09:12;;;;;;;2.67;1.67;;;21.00;50.30;;;;;;2346146;55;21785;-74
2022/05/11 01:11:50;;;;;;;2.97;1.70;;;20.90;50.30;;;;;;2585830;53;20964;-76
2022/05/11 01:14:20;;;;;;;3.03;1.60;;;20.90;50.50;;;;;;2577453;53;21016;-75
2022/05/11 01:16:46;;;;;;;3.47;1.90;;;20.90;50.40;;;;;;2322009;53;21023;-74
2022/05/11 01:19:26;;;;;;;3.17;1.85;;;20.90;50.40;;;;;;2457754;52;21948;-76
2022/05/11 01:23:38;;;;;;;2.90;1.67;;;20.80;50.50;;;;;;2498703;52;20992;-75
2022/05/11 01:26:15;;;;;;;2.92;1.75;;;20.80;50.60;;;;;;2580732;53;21318;-73
2022/05/11 01:28:43;;;;;;;3.12;1.80;;;20.70;50.40;;;;;;2321674;54;21008;-76
2022/05/11 01:31:11;;;;;;;4.03;2.10;;;20.70;50.30;;;;;;2352274;54;20939;-74
2022/05/11 01:33:39;;;;;;;2.87;1.67;;;20.60;50.40;;;;;;2322030;53;21026;-75
2022/05/11 01:36:30;;;;;;;3.47;1.87;;;20.60;50.50;;;;;;2440972;53;20991;-76
2022/05/11 01:39:07;;;;;;;3.25;1.95;;;20.50;50.70;;;;;;2339198;53;21002;-73
2022/05/11 01:41:39;;;;;;;3.30;1.77;;;20.50;50.70;;;;;;2459914;53;20983;-75
2022/05/11 01:44:08;;;;;;;3.05;1.55;;;20.50;50.70;;;;;;2340731;53;20958;-75
2022/05/11 01:46:34;;;;;;;3.95;2.08;;;20.40;50.60;;;;;;2410656;53;21458;-75
2022/05/11 01:49:01;;;;;;;3.03;1.92;;;20.40;50.70;;;;;;2339641;53;21010;-75
2022/05/11 01:51:27;;;;;;;3.12;2.00;;;20.30;50.70;;;;;;2362179;53;21492;-73
2022/05/11 01:53:55;;;;;;;2.92;1.75;;;20.30;50.80;;;;;;2367382;53;21027;-75
2022/05/11 01:56:23;;;;;;;2.92;1.85;;;20.30;50.90;;;;;;2337496;53;20955;-74
2022/05/11 01:58:49;;;;;;;3.22;1.90;;;20.20;50.90;;;;;;2339399;53;21009;-74
2022/05/11 02:01:19;;;;;;;3.22;2.10;;;20.20;51.00;;;;;;2338738;53;20946;-74
2022/05/11 02:03:46;;;;;;;3.58;2.00;;;20.20;51.00;;;;;;2338586;53;21725;-76
2022/05/11 02:08:58;;;;;;;2.92;1.80;;;20.10;51.00;;;;;;2338785;53;20989;-76
2022/05/11 02:11:26;;;;;;;3.37;2.10;;;20.10;51.00;;;;;;2366305;53;20948;-76
2022/05/11 02:13:53;;;;;;;3.10;1.92;;;20.00;50.90;;;;;;2335534;53;20906;-77
2022/05/11 02:16:20;;;;;;;3.03;2.08;;;20.00;51.00;;;;;;2546143;52;21071;-75
2022/05/11 02:18:47;;;;;;;3.30;1.87;;;20.00;51.10;;;;;;2343751;53;20953;-75
2022/05/11 02:21:13;;;;;;;3.33;2.50;;;19.90;51.10;;;;;;2445697;53;21923;-74
2022/05/11 02:23:40;;;;;;;3.50;2.25;;;19.90;51.10;;;;;;2345068;53;20904;-74
2022/05/11 02:26:09;;;;;;;3.40;2.17;;;19.90;51.20;;;;;;2350561;53;21019;-76
2022/05/11 02:28:35;;;;;;;3.25;2.10;;;19.90;51.20;;;;;;2351758;53;21017;-73
2022/05/11 02:31:02;;;;;;;3.08;2.03;;;19.80;51.20;;;;;;2423364;53;21480;-74
2022/05/11 02:33:37;;;;;;;3.70;2.30;;;19.80;51.20;;;;;;2344320;54;20920;-76
2022/05/11 02:36:04;;;;;;;3.55;2.20;;;19.70;51.40;;;;;;2373481;53;21524;-73
2022/05/11 02:38:33;;;;;;;3.00;1.87;;;19.70;51.30;;;;;;2432462;53;21757;-75
2022/05/11 02:41:00;;;;;;;3.22;1.87;;;19.60;51.40;;;;;;2380628;53;20924;-74
2022/05/11 02:43:27;;;;;;;3.10;2.00;;;19.60;51.50;;;;;;2344813;54;20893;-74
2022/05/11 02:45:55;;;;;;;3.08;2.00;;;19.60;51.70;;;;;;2339665;54;20960;-75
2022/05/11 02:48:23;;;;;;;3.42;2.15;;;19.60;51.90;;;;;;2373234;53;21004;-76
2022/05/11 02:50:52;;;;;;;3.03;1.83;;;19.70;52.10;;;;;;2375545;52;20932;-76
2022/05/11 02:53:18;;;;;;;3.60;2.08;;;19.70;52.10;;;;;;2366469;53;20964;-74
2022/05/11 02:55:47;;;;;;;3.17;1.80;;;19.80;52.30;;;;;;2404536;53;20992;-74
2022/05/11 02:58:14;;;;;;;4.30;2.40;;;19.80;52.30;;;;;;2373491;54;20968;-75
2022/05/11 03:00:43;;;;;;;3.70;2.15;;;20.00;52.40;;;;;;2379000;53;21000;-75
2022/05/11 03:03:11;;;;;;;4.28;1.90;;;20.00;52.20;;;;;;2372704;53;20996;-75
2022/05/11 03:05:39;;;;;;;3.35;2.08;;;20.10;52.20;;;;;;2511183;52;20917;-74
2022/05/11 03:08:05;;;;;;;4.93;2.40;;;20.20;52.10;;;;;;2370998;54;20964;-75
2022/05/11 03:10:32;;;;;;;3.20;1.70;;;20.20;52.00;;;;;;2504303;52;20969;-74
2022/05/11 03:13:02;;;;;;;3.97;1.83;;;20.20;51.90;;;;;;2375578;53;21031;-75
2022/05/11 03:15:30;;;;;;;3.92;1.60;;;20.30;51.90;;;;;;2371722;54;20984;-74
2022/05/11 03:17:57;;;;;;;3.37;1.92;;;20.30;51.70;;;;;;2358540;53;21032;-75
2022/05/11 03:20:26;;;;;;;2.97;1.80;;;20.40;51.70;;;;;;2397210;52;21811;-76
2022/05/11 03:22:52;;;;;;;2.70;1.73;;;20.40;51.60;;;;;;2375299;52;21411;-74
2022/05/11 03:25:26;;;;;;;4.35;1.80;;;20.40;51.50;;;;;;2428747;52;21012;-74
2022/05/11 03:27:53;;;;;;;2.75;1.50;;;20.40;51.50;;;;;;2349554;53;21004;-76
2022/05/11 03:30:20;;;;;;;3.58;1.92;;;20.40;51.30;;;;;;2461070;52;20941;-75
2022/05/11 03:35:33;;;;;;;2.70;1.70;;;20.40;51.30;;;;;;2386467;52;20988;-76
2022/05/11 03:38:00;;;;;;;4.35;2.00;;;20.40;51.20;;;;;;2365660;52;20996;-75
2022/05/11 03:40:26;;;;;;;2.83;1.50;;;20.30;51.10;;;;;;2432610;53;21003;-73
2022/05/11 03:42:53;;;;;;;3.62;2.03;;;20.30;51.10;;;;;;2357656;53;21002;-74
2022/05/11 03:45:21;;;;;;;3.20;1.90;;;20.30;51.10;;;;;;2473184;52;135298;-87
2022/05/11 03:47:48;;;;;;;4.07;1.85;;;20.20;51.00;;;;;;2240689;55;20987;-88
2022/05/11 03:50:15;;;;;;;3.28;1.87;;;20.20;51.00;;;;;;2462120;55;21511;-85
2022/05/11 03:52:42;;;;;;;3.10;2.03;;;20.00;50.90;;;;;;2461287;55;21001;-90
2022/05/11 03:55:10;;;;;;;3.12;1.83;;;20.10;50.90;;;;;;2460948;55;21015;-87
2022/05/11 03:57:40;;;;;;;3.20;2.08;;;20.00;50.90;;;;;;2245189;56;21134;-86
2022/05/11 04:00:13;;;;;;;3.40;2.10;;;19.90;50.90;;;;;;2460680;55;21057;-88
2022/05/11 04:02:40;;;;;;;3.47;2.12;;;19.90;50.90;;;;;;2243111;56;21358;-89
2022/05/11 04:05:09;;;;;;;4.03;1.90;;;19.80;50.90;;;;;;2460593;55;21101;-86
2022/05/11 04:07:36;;;;;;;3.45;1.90;;;19.70;51.00;;;;;;2242485;56;21079;-87
2022/05/11 04:10:03;;;;;;;3.12;1.95;;;19.60;51.00;;;;;;2447925;56;22039;-86
2022/05/11 04:12:30;;;;;;;3.75;1.92;;;19.60;51.00;;;;;;2462640;55;20971;-87
2022/05/11 04:14:57;;;;;;;3.67;2.30;;;19.50;51.10;;;;;;2462403;55;20959;-89
2022/05/11 04:17:24;;;;;;;3.65;2.25;;;19.40;51.20;;;;;;2460275;56;20959;-87
2022/05/11 04:19:50;;;;;;;4.05;2.35;;;19.40;51.20;;;;;;2460063;55;21019;-87
2022/05/11 04:22:16;;;;;;;3.70;2.00;;;19.30;51.20;;;;;;2459961;55;20996;-85
2022/05/11 04:24:43;;;;;;;3.10;2.00;;;19.30;51.30;;;;;;2231263;56;21271;-88
2022/05/11 04:27:10;;;;;;;3.78;2.30;;;19.20;51.30;;;;;;2459069;55;20943;-89
2022/05/11 04:29:37;;;;;;;3.17;2.17;;;19.10;51.40;;;;;;2221127;56;21014;-87
2022/05/11 04:32:04;;;;;;;3.62;2.30;;;19.10;51.50;;;;;;2238818;56;21563;-87
2022/05/11 04:34:30;;;;;;;4.18;2.60;;;19.10;52.20;;;;;;2460761;55;20986;-87
2022/05/11 04:36:57;;;;;;;3.10;2.00;;;19.00;51.60;;;;;;2459721;55;20994;-89
2022/05/11 04:39:23;;;;;;;3.20;2.15;;;19.00;51.70;;;;;;2459817;55;22027;-87
2022/05/11 04:41:51;;;;;;;3.20;2.15;;;18.90;51.70;;;;;;2459944;55;20943;-88
2022/05/11 04:44:18;;;;;;;3.75;2.37;;;18.90;51.90;;;;;;2458164;55;20983;-86
2022/05/11 04:46:45;;;;;;;4.15;2.50;;;18.90;52.00;;;;;;2458430;55;21035;-85
2022/05/11 04:49:19;;;;;;;3.10;1.90;;;18.90;52.10;;;;;;2239316;56;22352;-89
2022/05/11 04:51:52;;;;;;;3.72;2.20;;;18.80;52.10;;;;;;2460065;55;20975;-85
2022/05/11 04:54:18;;;;;;;3.10;2.00;;;18.80;52.20;;;;;;2241832;56;21035;-86
2022/05/11 04:56:44;;;;;;;3.08;1.85;;;18.80;52.80;;;;;;2458120;55;21030;-89
2022/05/11 04:59:12;;;;;;;3.85;2.10;;;18.80;52.30;;;;;;2237995;56;20998;-87
2022/05/11 05:01:40;;;;;;;2.78;1.77;;;18.80;52.30;;;;;;2458945;55;21489;-86
2022/05/11 05:04:07;;;;;;;3.35;2.12;;;18.80;52.40;;;;;;2456932;55;20966;-87
2022/05/11 05:06:34;;;;;;;4.82;2.30;;;18.80;52.50;;;;;;2459282;55;22065;-88
2022/05/11 05:09:01;;;;;;;3.28;1.92;;;18.80;52.60;;;;;;2458288;55;20997;-88
2022/05/11 05:11:27;;;;;;;3.00;1.85;;;18.80;52.70;;;;;;2457687;55;21977;-86
2022/05/11 05:13:53;;;;;;;3.20;2.08;;;18.80;52.80;;;;;;2236290;56;21009;-88
2022/05/11 05:16:20;;;;;;;4.95;2.20;;;18.80;53.50;;;;;;2240847;56;21270;-88
2022/05/11 05:18:47;;;;;;;3.40;1.90;;;18.90;53.00;;;;;;2236832;56;21042;-87
2022/05/11 05:21:14;;;;;;;3.45;1.95;;;18.80;53.00;;;;;;2459057;55;20946;-86
2022/05/11 05:23:40;;;;;;;3.30;2.15;;;18.80;53.10;;;;;;2460099;55;20991;-87
2022/05/11 05:26:07;;;;;;;3.83;2.10;;;18.90;53.30;;;;;;2459378;55;20990;-89
2022/05/11 05:31:21;;;;;;;3.97;2.08;;;19.00;53.50;;;;;;2458360;55;21054;-86
2022/05/11 05:33:47;;;;;;;3.80;2.15;;;19.00;53.60;;;;;;2236520;56;20954;-86
2022/05/11 05:36:14;;;;;;;5.07;2.25;;;19.00;53.70;;;;;;2242178;56;21027;-88
2022/05/11 05:38:41;;;;;;;5.55;2.80;;;19.10;53.80;;;;;;2458307;55;21114;-86
2022/05/11 05:41:11;;;;;;;4.60;2.35;;;19.20;53.90;;;;;;2457873;55;21561;-87
2022/05/11 05:43:38;;;;;;;5.93;2.60;;;19.30;54.10;;;;;;2456501;55;20963;-84
2022/05/11 05:46:04;;;;;;;3.83;2.12;;;19.30;54.00;;;;;;2458855;55;21012;-86
2022/05/11 05:48:31;;;;;;;3.40;2.33;;;19.40;54.10;;;;;;2455805;55;21556;-86
2022/05/11 05:51:07;;;;;;;3.20;2.10;;;19.50;54.20;;;;;;2455914;55;21928;-86
2022/05/11 05:53:34;;;;;;;4.85;2.70;;;19.60;54.30;;;;;;2452335;55;21014;-86
2022/05/11 05:56:00;;;;;;;3.87;2.50;;;19.60;54.10;;;;;;2455253;55;21117;-85
2022/05/11 05:58:27;;;;;;;3.72;2.03;;;19.70;54.20;;;;;;2457081;55;20939;-87
2022/05/11 06:00:54;;;;;;;3.87;2.08;;;19.80;54.20;;;;;;2238226;56;21014;-87
2022/05/11 06:03:24;;;;;;;3.30;2.03;;;19.90;54.30;;;;;;2457995;55;21995;-85
2022/05/11 06:05:50;;;;;;;3.65;2.15;;;20.00;54.30;;;;;;2458472;55;21034;-85
2022/05/11 06:08:17;;;;;;;3.03;1.83;;;20.10;54.40;;;;;;2236783;56;20958;-86
2022/05/11 06:10:44;;;;;;;3.42;1.92;;;20.20;54.40;;;;;;2457982;55;21600;-83
2022/05/11 06:13:12;;;;;;;3.50;1.87;;;20.30;54.40;;;;;;2236323;56;20986;-86
2022/05/11 06:15:40;;;;;;;3.22;1.80;;;20.40;54.40;;;;;;2459245;55;21574;-85
2022/05/11 06:18:07;;;;;;;3.47;1.98;;;20.60;54.40;;;;;;2237381;56;21533;-89
2022/05/11 06:20:35;;;;;;;3.37;2.33;;;20.80;54.40;;;;;;2461131;55;21073;-86
2022/05/11 06:23:04;;;;;;;4.00;1.98;;;20.90;54.30;;;;;;2458926;55;20959;-87
2022/05/11 06:25:31;;;;;;;3.58;2.30;;;21.10;54.30;;;;;;2236573;56;21002;-86
2022/05/11 06:27:58;;;;;;;3.90;2.45;;;21.20;54.30;;;;;;2458453;55;21480;-85
2022/05/11 06:30:25;;;;;;;3.40;2.10;;;21.40;54.30;;;;;;2457670;55;20950;-85
2022/05/11 06:32:52;;;;;;;3.80;2.22;;;21.50;54.20;;;;;;2458445;55;21631;-85
2022/05/11 06:35:19;;;;;;;5.35;2.20;;;21.70;54.00;;;;;;2459180;55;21002;-87
2022/05/11 06:37:46;;;;;;;3.03;2.10;;;21.80;53.90;;;;;;2433074;56;21002;-84
2022/05/11 06:40:14;;;;;;;3.53;2.20;;;22.00;53.80;;;;;;2458688;55;21484;-86
2022/05/11 06:42:41;;;;;;;3.30;2.00;;;22.20;53.70;;;;;;2242871;56;20991;-85
2022/05/11 06:45:08;;;;;;;4.65;1.95;;;22.30;53.50;;;;;;2237254;56;21071;-86
2022/05/11 06:47:35;;;;;;;3.45;1.98;;;22.40;53.50;;;;;;2458878;56;20944;-88
2022/05/11 06:50:01;;;;;;;3.50;2.00;;;22.60;53.50;;;;;;2459815;55;20983;-90
2022/05/11 06:52:28;;;;;;;3.72;2.28;;;22.80;53.30;;;;;;2237647;56;21523;-86
2022/05/11 07:00:27;;;;;;;3.67;2.22;;;23.30;53.20;;;;;;2215167;57;21050;-85
2022/05/11 07:02:54;;;;;;;3.50;2.30;;;23.50;53.30;;;;;;2238689;56;21058;-83
2022/05/11 07:05:20;;;;;;;4.15;2.67;;;23.80;53.30;;;;;;2237387;56;20974;-85
2022/05/11 07:07:47;;;;;;;3.50;2.30;;;24.10;53.50;;;;;;2458424;55;20897;-87
2022/05/11 07:10:16;;;;;;;3.95;2.60;;;24.30;53.30;;;;;;2457985;55;20982;-86
2022/05/11 07:12:48;;;;;;;3.40;2.40;;;24.60;52.50;;;;;;2238928;56;20971;-86
2022/05/11 07:15:19;;;;;;;3.70;2.50;;;24.90;52.30;;;;;;2458187;55;21707;-83
2022/05/11 07:18:04;;;;;;;3.67;2.70;;;25.20;51.60;;;;;;2457579;55;21034;-87
2022/05/11 07:20:36;;;;;;;3.47;2.47;;;25.40;50.90;;;;;;2457389;55;21022;-87
2022/05/11 07:23:04;;;;;;;4.15;2.58;;;25.70;50.70;;;;;;2235369;56;21865;-86
2022/05/11 07:25:31;;;;;;;3.53;2.37;;;26.00;50.80;;;;;;2460159;55;20959;-84
2022/05/11 07:27:57;;;;;;;3.33;2.33;;;26.30;50.90;;;;;;2238472;56;20982;-88
2022/05/11 07:30:27;;;;;;;3.30;2.22;;;26.70;50.70;;;;;;2458281;55;21037;-84
2022/05/11 07:32:57;;;;;;;4.35;2.30;;;27.10;50.30;;;;;;2457229;56;20959;-85
2022/05/11 07:35:24;;;;;;;3.30;2.25;;;27.40;49.80;;;;;;2449126;55;20990;-87
2022/05/11 07:37:50;;;;;;;3.37;2.20;;;27.70;49.00;;;;;;2456659;55;20992;-86
2022/05/11 07:40:17;;;;;;;3.33;2.08;;;27.90;48.30;;;;;;2459921;55;21018;-88
2022/05/11 07:42:45;;;;;;;2.78;1.85;;;28.10;47.70;;;;;;2239187;56;21011;-86
2022/05/11 07:45:15;;;;;;;3.28;2.20;;;28.20;47.40;;;;;;2237630;56;21009;-91
2022/05/11 07:47:43;;;;;;;4.00;2.20;;;28.30;46.80;;;;;;2240971;56;20977;-87
2022/05/11 07:50:13;;;;;;;3.58;2.60;;;28.40;46.20;;;;;;2237980;56;20974;-88
2022/05/11 07:52:44;;;;;;;3.47;2.12;;;28.60;46.10;;;;;;2249492;56;20964;-89
2022/05/11 07:55:10;;;;;;;3.87;2.63;;;28.70;45.20;;;;;;2218195;56;20958;-83
2022/05/11 08:00:22;;;;;;;3.42;2.20;;;28.90;43.80;;;;;;2460540;55;20965;-83
2022/05/11 08:02:51;;;;;;;3.35;2.37;;;28.80;43.50;;;;;;2239778;56;21015;-84
2022/05/11 08:05:18;;;;;;;3.35;2.00;;;28.80;43.10;;;;;;2237655;56;21045;-85
2022/05/11 08:07:53;;;;;;;3.20;2.10;;;28.70;42.90;;;;;;2457539;56;20958;-86
2022/05/11 08:10:33;;;;;;;3.45;2.05;;;28.70;42.80;;;;;;2460320;55;21099;-84
2022/05/11 08:13:00;;;;;;;3.92;2.40;;;28.60;42.60;;;;;;2236271;56;21966;-86
2022/05/11 08:15:31;;;;;;;3.75;2.10;;;28.60;42.50;;;;;;2242785;56;21011;-83
2022/05/11 08:17:58;;;;;;;6.80;2.33;;;28.60;42.60;;;;;;2223890;56;21604;-84
2022/05/11 08:20:27;;;;;;;3.97;2.62;;;28.50;41.90;;;;;;2237362;56;21419;-86
2022/05/11 08:22:53;;;;;;;3.15;2.20;;;28.40;41.60;;;;;;2456814;55;21010;-84
2022/05/11 08:25:22;;;;;;;3.97;2.30;;;28.40;41.50;;;;;;2456247;55;20978;-84
2022/05/11 08:27:48;;;;;;;4.80;2.80;;;28.30;41.70;;;;;;2458364;55;20995;-81
2022/05/11 08:35:57;;;;;;;4.25;2.60;;;28.30;41.70;;;;;;2236018;56;21018;-85
2022/05/11 08:38:25;;;;;;;3.92;2.50;;;28.20;41.40;;;;;;2235597;56;20950;-83
2022/05/11 08:42:22;;;;;;;3.25;2.22;;;28.20;41.20;;;;;;2238456;56;21056;-84
2022/05/11 08:44:48;;;;;;;3.45;2.00;;;28.30;41.70;;;;;;2457198;55;20959;-85
2022/05/11 08:47:41;;;;;;;3.75;2.40;;;28.30;42.10;;;;;;2238539;56;21532;-82
2022/05/11 08:50:26;;;;;;;3.45;2.40;;;28.40;41.90;;;;;;2235643;56;21050;-82
2022/05/11 08:53:04;;;;;;;4.35;2.40;;;28.50;42.20;;;;;;2234467;56;21031;-82
2022/05/11 08:55:49;;;;;;;3.67;2.55;;;28.60;42.00;;;;;;2456789;55;21043;-84
2022/05/11 08:58:52;;;;;;;4.53;2.65;;;28.60;41.40;;;;;;2234891;56;21292;-81
2022/05/11 09:01:22;;;;;;;4.10;2.60;;;28.70;40.80;;;;;;2419095;57;20986;-84
2022/05/11 09:03:53;;;;;;;5.72;2.45;;;28.80;40.90;;;;;;2456804;55;21044;-85
2022/05/11 09:06:24;;;;;;;4.07;2.40;;;28.80;40.80;;;;;;2251729;56;21121;-83
2022/05/11 09:08:51;;;;;;;3.92;2.72;;;28.90;40.80;;;;;;2458275;55;21624;-83
2022/05/11 09:11:27;;;;;;;4.43;2.70;;;28.90;40.80;;;;;;2232021;55;21018;-84
2022/05/11 09:13:58;;;;;;;3.58;2.40;;;29.00;40.30;;;;;;2458983;55;20999;-85
2022/05/11 09:16:38;;;;;;;4.32;2.50;;;29.00;40.50;;;;;;2472186;55;21002;-84
2022/05/11 09:19:18;;;;;;;6.40;2.30;;;29.10;40.70;;;;;;2240792;55;20967;-83
2022/05/11 09:21:53;;;;;;;5.43;2.40;;;29.10;40.70;;;;;;2247573;56;21003;-83
2022/05/11 09:24:30;;;;;;;4.32;2.28;;;29.20;40.50;;;;;;2464828;55;21066;-83
2022/05/11 09:27:02;;;;;;;3.75;2.37;;;29.20;40.20;;;;;;2240394;55;21361;-85
2022/05/11 09:29:37;;;;;;;4.75;1.98;;;29.30;40.50;;;;;;2471490;55;21505;-84
2022/05/11 09:35:38;;;;;;;3.65;2.35;;;29.30;40.50;;;;;;2448180;55;21051;-84
2022/05/11 09:40:58;;;;;;;3.75;2.25;;;29.50;40.80;;;;;;2458563;55;22297;-82
2022/05/11 09:43:36;;;;;;;3.47;2.30;;;29.70;39.90;;;;;;2460455;55;20972;-82
2022/05/11 09:46:34;;;;;;;4.00;2.45;;;29.70;39.20;;;;;;2245912;56;21041;-83
2022/05/11 09:49:46;;;;;;;3.75;2.20;;;29.70;38.90;;;;;;2457800;55;20984;-85
2022/05/11 09:52:14;;;;;;;4.03;2.33;;;29.80;39.30;;;;;;2459530;55;21465;-84
2022/05/11 09:54:51;;;;;;;3.70;2.25;;;29.80;39.00;;;;;;2466681;55;21923;-83
2022/05/11 09:57:20;;;;;;;7.28;2.40;;;29.90;38.30;;;;;;2471084;55;21022;-82
2022/05/11 09:59:51;;;;;;;3.83;2.47;;;29.90;38.70;;;;;;2237713;56;20971;-83
2022/05/11 10:02:53;;;;;;;3.67;2.60;;;29.90;38.90;;;;;;2476584;55;21082;-88
2022/05/11 10:05:33;;;;;;;7.57;2.40;;;30.00;38.30;;;;;;2460043;55;21473;-81
2022/05/11 10:08:08;;;;;;;3.85;2.20;;;30.00;38.00;;;;;;2459346;55;20940;-82
2022/05/11 10:10:47;;;;;;;2.70;1.83;;;30.00;38.10;;;;;;2250473;55;21038;-81
2022/05/11 10:13:24;;;;;;;4.85;2.25;;;30.10;38.40;;;;;;2453606;55;21003;-81
2022/05/11 10:22:10;;;;;;;5.30;2.10;;;30.30;38.70;;;;;;2242676;56;21950;-85
2022/05/11 10:24:58;;;;;;;3.92;2.50;;;30.40;38.40;;;;;;2458919;55;20962;-83
2022/05/11 10:31:29;;;;;;;3.47;2.33;;;30.50;38.10;;;;;;2237370;56;21378;-83
2022/05/11 10:35:17;;;;;;;3.15;2.00;;;30.60;38.20;;;;;;2459094;55;21093;-80
2022/05/11 10:38:06;;;;;;;4.18;2.20;;;30.70;38.30;;;;;;2457671;55;20927;-82
2022/05/11 10:40:42;;;;;;;3.20;2.10;;;30.80;37.40;;;;;;2460414;55;21397;-83
2022/05/11 10:45:08;;;;;;;5.07;2.60;;;30.90;37.30;;;;;;2237018;56;21901;-83
2022/05/11 10:48:06;;;;;;;3.95;2.33;;;31.00;36.80;;;;;;2459593;55;21453;-82
2022/05/11 10:51:14;;;;;;;3.62;2.10;;;31.00;37.00;;;;;;2460146;55;20946;-83
2022/05/11 10:53:53;;;;;;;3.25;2.12;;;31.10;36.80;;;;;;2459901;55;21422;-81
2022/05/11 10:59:34;;;;;;;3.83;2.10;;;31.10;36.50;;;;;;2210479;56;21326;-82
2022/05/11 11:02:47;;;;;;;5.82;2.10;;;31.20;36.80;;;;;;2436071;56;20941;-83
2022/05/11 11:05:24;;;;;;;2.90;1.87;;;31.30;36.40;;;;;;2235928;56;21059;-82
2022/05/11 11:08:24;;;;;;;2.67;1.50;;;31.40;36.60;;;;;;2459702;55;21984;-82
2022/05/11 11:11:17;;;;;;;3.00;1.70;;;31.50;36.70;;;;;;2434933;56;20945;-81
2022/05/11 11:14:00;;;;;;;5.22;2.22;;;31.60;36.70;;;;;;2458888;56;20961;-86
2022/05/11 11:16:36;;;;;;;3.53;2.33;;;31.70;35.50;;;;;;2461325;55;20921;-85
2022/05/11 11:19:04;;;;;;;3.87;2.45;;;31.70;35.30;;;;;;2450424;55;21520;-84
2022/05/11 11:21:30;;;;;;;9.25;2.40;;;31.80;34.90;;;;;;2232285;56;21260;-83
2022/05/11 11:24:25;;;;;;;3.22;2.08;;;31.80;34.80;;;;;;2456274;56;21822;-82
2022/05/11 11:26:59;;;;;;;4.00;2.00;;;31.90;34.50;;;;;;2452170;55;21451;-83
2022/05/11 11:29:36;;;;;;;3.10;1.90;;;31.80;34.90;;;;;;2439534;56;21147;-82
2022/05/11 11:32:25;;;;;;;3.92;2.08;;;31.90;34.80;;;;;;2455973;55;20977;-84
2022/05/11 11:36:28;;;;;;;3.53;2.25;;;31.90;34.30;;;;;;2456962;56;21114;-85
2022/05/11 11:38:58;;;;;;;3.15;2.10;;;31.90;34.00;;;;;;2457861;56;21005;-82
2022/05/11 11:41:28;;;;;;;3.85;2.20;;;32.00;33.60;;;;;;2457678;56;21007;-84
2022/05/11 11:44:26;;;;;;;3.22;2.00;;;32.00;33.30;;;;;;2457436;56;21052;-88
2022/05/11 11:46:52;;;;;;;3.67;1.95;;;32.00;32.70;;;;;;2236253;56;21084;-82
2022/05/11 12:53:20;;;;;;;2.87;1.62;;;32.80;30.90;;;;;;2312215;53;21050;-71
2022/05/11 12:55:55;;;;;;;4.20;1.75;;;32.80;30.80;;;;;;2285927;55;21054;-72
2022/05/11 12:58:24;;;;;;;2.42;1.30;;;32.80;30.30;;;;;;2265586;54;20937;-73
2022/05/11 13:00:58;;;;;;;3.87;1.80;;;32.80;30.40;;;;;;2273084;54;21535;-72
2022/05/11 13:03:36;;;;;;;3.00;1.37;;;32.90;30.10;;;;;;2255679;55;20980;-70
2022/05/11 13:06:24;;;;;;;2.78;1.42;;;32.80;30.00;;;;;;2284466;54;21664;-72
2022/05/11 13:08:51;;;;;;;3.35;1.42;;;32.90;30.10;;;;;;2287451;54;21111;-73
2022/05/11 13:11:18;;;;;;;3.42;1.50;;;32.90;30.30;;;;;;2287375;54;21113;-74
2022/05/11 13:13:45;;;;;;;2.58;1.35;;;33.00;29.70;;;;;;2294097;54;21068;-74
2022/05/11 13:16:24;;;;;;;3.33;1.35;;;33.00;29.80;;;;;;2520460;54;20934;-73
2022/05/11 13:19:01;;;;;;;2.50;1.35;;;33.00;29.30;;;;;;2287626;54;20937;-72
2022/05/11 13:21:35;;;;;;;3.05;1.40;;;33.00;29.80;;;;;;2288945;55;20965;-71
2022/05/11 13:24:03;;;;;;;2.95;1.45;;;33.10;29.40;;;;;;2292424;54;21048;-72
2022/05/11 13:26:51;;;;;;;2.65;1.20;;;33.10;29.80;;;;;;2291991;54;20957;-71
2022/05/11 13:29:23;;;;;;;2.97;1.30;;;33.20;29.80;;;;;;2286524;54;20925;-70
2022/05/11 13:32:08;;;;;;;2.78;1.12;;;33.20;29.60;;;;;;2294205;54;20944;-73
2022/05/11 13:34:42;;;;;;;2.55;1.20;;;33.30;29.50;;;;;;2295760;54;21024;-71
2022/05/11 13:37:25;;;;;;;2.45;1.37;;;33.40;30.00;;;;;;2367562;54;21005;-73
2022/05/11 13:39:51;;;;;;;3.25;1.40;;;33.50;29.30;;;;;;2286696;54;20933;-71
2022/05/11 13:42:25;;;;;;;3.62;1.50;;;33.50;29.20;;;;;;2286323;54;21264;-74
2022/05/11 13:44:56;;;;;;;2.60;1.50;;;33.50;29.10;;;;;;2291255;54;20949;-72
2022/05/11 13:50:50;;;;;;;3.40;1.40;;;33.70;28.50;;;;;;2286300;54;21037;-73
2022/05/11 13:53:26;;;;;;;3.05;1.50;;;33.70;28.60;;;;;;2286849;54;21540;-74
2022/05/11 13:56:28;;;;;;;4.12;1.80;;;33.70;28.00;;;;;;2291983;54;20972;-73
2022/05/11 13:59:20;;;;;;;2.47;1.20;;;33.70;28.10;;;;;;2287829;54;21772;-72
2022/05/11 14:01:50;;;;;;;3.25;1.35;;;33.70;28.20;;;;;;2294538;54;20965;-72
2022/05/11 14:04:26;;;;;;;2.55;1.40;;;33.70;28.30;;;;;;2287892;54;21766;-74
2022/05/11 14:07:12;;;;;;;3.50;1.50;;;33.70;27.50;;;;;;2400882;54;20977;-70
2022/05/11 14:09:42;;;;;;;2.42;1.15;;;33.80;27.60;;;;;;2295257;55;20960;-72
2022/05/11 14:12:10;;;;;;;3.37;1.20;;;33.80;27.90;;;;;;2289612;54;20978;-73
2022/05/11 14:14:37;;;;;;;3.53;1.33;;;33.80;28.20;;;;;;2289459;54;20945;-72
2022/05/11 14:17:06;;;;;;;5.10;0.90;;;33.90;27.70;;;;;;2289480;54;21025;-69
2022/05/11 14:19:33;;;;;;;3.67;1.00;;;33.90;27.60;;;;;;2290831;54;20971;-70
2022/05/11 14:22:00;;;;;;;4.25;1.10;;;34.00;27.60;;;;;;2405830;54;21002;-71
2022/05/11 14:24:26;;;;;;;1.90;1.00;;;34.00;27.80;;;;;;2286090;54;20985;-72
2022/05/11 14:26:53;;;;;;;2.20;1.00;;;34.10;27.90;;;;;;2293377;54;20996;-72
2022/05/11 14:29:19;;;;;;;3.15;1.02;;;34.20;27.50;;;;;;2286786;54;21771;-74
2022/05/11 14:31:47;;;;;;;2.55;1.08;;;34.30;27.40;;;;;;2376820;54;21049;-73
2022/05/11 14:34:15;;;;;;;2.35;0.93;;;34.40;27.20;;;;;;2285981;54;20969;-72
2022/05/11 14:36:46;;;;;;;2.03;0.82;;;34.40;26.90;;;;;;2292165;54;21536;-72
2022/05/11 14:39:14;;;;;;;1.45;0.77;;;34.50;27.10;;;;;;2488272;54;21001;-75
2022/05/11 14:41:41;;;;;;;3.30;1.10;;;34.50;25.90;;;;;;2287338;54;21079;-74
2022/05/11 14:44:07;;;;;;;2.03;0.88;;;34.50;26.30;;;;;;2285731;54;20991;-73
2022/05/11 14:46:34;;;;;;;1.92;0.80;;;34.60;26.40;;;;;;2286693;54;21021;-75
2022/05/11 14:49:00;;;;;;;2.15;0.80;;;34.60;26.30;;;;;;2284372;54;20930;-72
2022/05/11 14:51:26;;;;;;;1.87;0.90;;;34.60;26.20;;;;;;2290609;54;21980;-71
2022/05/11 14:53:53;;;;;;;2.22;1.00;;;34.70;26.20;;;;;;2289976;54;21052;-70
2022/05/11 14:56:20;;;;;;;2.12;0.70;;;34.70;25.80;;;;;;2286769;54;20926;-72
2022/05/11 15:13:57;;;;;;;1.40;0.70;;;34.80;25.00;;;;;;2295095;55;20996;-71
2022/05/11 15:16:25;;;;;;;2.97;0.80;;;34.50;25.00;;;;;;2286369;54;20914;-71
2022/05/11 15:18:51;;;;;;;2.60;0.85;;;34.40;24.70;;;;;;2293394;54;20964;-72
2022/05/11 15:21:19;;;;;;;1.65;0.70;;;34.30;24.30;;;;;;2286280;54;21020;-73
2022/05/11 15:23:45;;;;;;;1.55;0.70;;;34.30;24.50;;;;;;2286816;54;20966;-72